createdAt,value
2022-11-17T00:20:13.623Z,9.10
2022-11-17T01:12:23.926Z,7.30
2022-11-17T01:20:51.846Z,4.97
2022-11-17T01:28:44.745Z,4.53
2022-11-17T01:43:48.591Z,4.70
2022-11-17T01:58:36.634Z,3.92
2022-11-17T02:02:00.141Z,5.15
2022-11-17T02:10:31.927Z,4.43
2022-11-17T02:14:00.470Z,4.15
2022-11-17T02:18:11.475Z,4.15
2022-11-17T02:21:31.753Z,4.10
2022-11-17T02:25:26.989Z,3.93
2022-11-17T02:28:52.220Z,4.20
2022-11-17T02:32:10.937Z,4.07
2022-11-17T02:36:10.448Z,4.30
2022-11-17T02:39:51.431Z,4.00
2022-11-17T02:43:17.998Z,4.53
2022-11-17T02:46:20.414Z,4.45
2022-11-17T02:49:30.392Z,4.43
2022-11-17T02:52:19.227Z,4.65
2022-11-17T02:55:10.337Z,4.15
2022-11-17T02:57:58.369Z,4.15
2022-11-17T03:01:30.818Z,5.50
2022-11-17T03:04:33.658Z,4.35
2022-11-17T03:07:50.275Z,4.80
2022-11-17T03:11:02.649Z,5.60
2022-11-17T03:14:09.006Z,5.53
2022-11-17T03:17:15.420Z,5.85
2022-11-17T03:20:27.840Z,5.82
2022-11-17T03:23:25.329Z,6.75
2022-11-17T03:26:24.911Z,5.93
2022-11-17T03:29:17.000Z,6.35
2022-11-17T03:32:08.194Z,6.35
2022-11-17T03:35:01.504Z,6.80
2022-11-17T03:37:59.754Z,5.30
2022-11-17T03:40:49.225Z,6.57
2022-11-17T03:43:39.143Z,5.85
2022-11-17T03:46:29.811Z,4.68
2022-11-17T03:49:36.896Z,5.90
2022-11-17T03:52:26.270Z,5.53
2022-11-17T03:55:17.539Z,5.47
2022-11-17T03:58:18.578Z,5.18
2022-11-17T04:01:07.157Z,5.10
2022-11-17T04:03:55.579Z,4.60
2022-11-17T04:06:43.655Z,4.40
2022-11-17T04:09:34.137Z,4.10
2022-11-17T04:12:40.714Z,4.03
2022-11-17T04:15:47.704Z,4.43
2022-11-17T04:18:35.702Z,4.45
2022-11-17T04:21:23.532Z,5.10
2022-11-17T04:24:11.717Z,4.40
2022-11-17T04:27:18.382Z,4.88
2022-11-17T04:30:06.762Z,5.40
2022-11-17T04:32:54.729Z,4.43
2022-11-17T04:35:42.687Z,4.70
2022-11-17T04:38:33.186Z,4.32
2022-11-17T04:41:42.663Z,3.78
2022-11-17T04:44:32.560Z,3.63
2022-11-17T04:47:20.546Z,5.07
2022-11-17T04:50:09.089Z,5.13
2022-11-17T04:52:57.077Z,5.43
2022-11-17T04:55:45.214Z,6.35
2022-11-17T04:58:36.964Z,6.78
2022-11-17T05:01:28.132Z,5.97
2022-11-17T05:04:39.510Z,7.40
2022-11-17T05:07:28.079Z,8.02
2022-11-17T05:10:16.327Z,7.53
2022-11-17T05:13:22.681Z,6.72
2022-11-17T05:16:28.831Z,7.90
2022-11-17T05:19:24.319Z,7.65
2022-11-17T05:22:37.632Z,7.05
2022-11-17T05:25:25.613Z,8.63
2022-11-17T05:28:13.529Z,10.15
2022-11-17T05:31:01.375Z,8.80
2022-11-17T05:33:49.306Z,10.10
2022-11-17T05:36:37.374Z,8.20
2022-11-17T05:39:25.305Z,9.18
2022-11-17T05:42:13.401Z,9.23
2022-11-17T05:45:01.274Z,8.13
2022-11-17T05:47:49.059Z,7.53
2022-11-17T05:50:37.079Z,6.78
2022-11-17T05:53:25.602Z,9.52
2022-11-17T05:56:31.858Z,8.98
2022-11-17T05:59:36.998Z,10.70
2022-11-17T06:02:32.600Z,9.48
2022-11-17T06:05:20.851Z,7.20
2022-11-17T06:08:08.709Z,4.97
2022-11-17T06:10:56.801Z,4.90
2022-11-17T06:13:44.638Z,3.80
2022-11-17T06:16:39.841Z,4.32
2022-11-17T06:19:43.881Z,5.10
2022-11-17T06:22:32.709Z,6.35
2022-11-17T06:25:21.255Z,6.25
2022-11-17T06:28:14.037Z,6.90
2022-11-17T06:31:02.678Z,6.13
2022-11-17T06:33:50.441Z,8.02
2022-11-17T06:36:38.281Z,8.65
2022-11-17T06:39:26.162Z,8.32
2022-11-17T06:42:14.089Z,8.20
2022-11-17T06:45:02.062Z,9.98
2022-11-17T06:47:52.647Z,9.13
2022-11-17T06:50:40.660Z,8.90
2022-11-17T06:53:28.661Z,9.73
2022-11-17T06:56:18.200Z,10.75
2022-11-17T06:59:06.044Z,11.13
2022-11-17T07:01:53.866Z,11.75
2022-11-17T07:04:41.773Z,10.20
2022-11-17T07:07:29.755Z,10.35
2022-11-17T07:10:17.935Z,9.65
2022-11-17T07:13:06.054Z,9.10
2022-11-17T07:15:53.874Z,8.02
2022-11-17T07:18:42.739Z,8.32
2022-11-17T07:21:30.677Z,8.18
2022-11-17T07:24:18.661Z,7.13
2022-11-17T07:27:06.635Z,5.57
2022-11-17T07:29:54.472Z,5.50
2022-11-17T07:32:42.502Z,6.78
2022-11-17T07:35:30.371Z,6.05
2022-11-17T07:38:21.188Z,6.45
2022-11-17T07:41:13.039Z,5.60
2022-11-17T07:44:00.993Z,6.57
2022-11-17T07:46:48.862Z,6.07
2022-11-17T07:49:36.778Z,4.82
2022-11-17T07:52:24.669Z,4.30
2022-11-17T07:55:12.501Z,3.97
2022-11-17T07:58:02.203Z,3.40
2022-11-17T08:00:52.515Z,2.78
2022-11-17T08:03:40.547Z,2.38
2022-11-17T08:06:28.570Z,2.55
2022-11-17T08:09:16.635Z,2.20
2022-11-17T08:12:04.764Z,1.95
2022-11-17T08:14:52.858Z,2.15
2022-11-17T08:17:40.846Z,2.67
2022-11-17T08:20:29.963Z,2.33
2022-11-17T08:23:18.598Z,2.47
2022-11-17T08:26:11.689Z,2.10
2022-11-17T08:29:01.906Z,2.38
2022-11-17T08:31:49.775Z,2.15
2022-11-17T08:34:38.972Z,2.38
2022-11-17T08:37:27.022Z,2.15
2022-11-17T08:40:20.603Z,2.53
2022-11-17T08:43:08.930Z,2.50
2022-11-17T08:46:08.746Z,2.00
2022-11-17T08:49:00.553Z,2.28
2022-11-17T08:51:52.801Z,2.58
2022-11-17T08:54:40.622Z,2.33
2022-11-17T08:57:30.543Z,2.58
2022-11-17T09:00:21.329Z,2.42
2022-11-17T09:03:11.090Z,3.00
2022-11-17T09:09:32.219Z,2.45
2022-11-17T09:12:20.211Z,2.70
2022-11-17T09:15:09.358Z,2.30
2022-11-17T09:18:00.311Z,2.30
2022-11-17T09:20:48.235Z,2.42
2022-11-17T09:23:36.938Z,2.80
2022-11-17T09:26:25.641Z,2.30
2022-11-17T09:29:14.683Z,2.45
2022-11-17T09:32:02.977Z,2.35
2022-11-17T09:34:51.558Z,2.78
2022-11-17T09:37:39.541Z,3.90
2022-11-17T09:40:31.856Z,2.90
2022-11-17T09:43:34.302Z,3.13
2022-11-17T09:46:35.625Z,3.25
2022-11-17T09:49:37.396Z,2.92
2022-11-17T09:53:05.532Z,2.83
2022-11-17T09:56:02.119Z,3.85
2022-11-17T09:59:04.409Z,4.18
2022-11-17T10:01:52.741Z,4.88
2022-11-17T10:04:40.595Z,3.70
2022-11-17T10:07:31.446Z,4.03
2022-11-17T10:10:30.314Z,4.15
2022-11-17T10:13:27.550Z,4.75
2022-11-17T10:16:15.651Z,2.97
2022-11-17T10:19:26.033Z,2.80
2022-11-17T10:22:37.148Z,3.00
2022-11-17T10:25:40.733Z,2.60
2022-11-17T10:28:33.546Z,2.77
2022-11-17T10:31:21.415Z,3.67
2022-11-17T10:34:38.915Z,2.65
2022-11-17T10:37:33.595Z,4.72
2022-11-17T10:40:27.688Z,4.22
2022-11-17T10:46:15.811Z,2.90
2022-11-17T10:49:33.746Z,3.65
2022-11-17T10:52:29.238Z,2.38
2022-11-17T10:58:18.812Z,2.65
2022-11-17T11:01:27.186Z,2.10
2022-11-17T11:04:58.140Z,2.22
2022-11-17T11:08:14.273Z,3.33
2022-11-17T11:12:05.710Z,2.50
2022-11-17T11:14:58.416Z,2.70
2022-11-17T11:18:01.994Z,2.35
2022-11-17T11:21:40.119Z,3.22
2022-11-17T11:29:26.408Z,2.47
2022-11-17T11:40:06.312Z,2.45
2022-11-17T11:43:09.652Z,2.42
2022-11-17T11:46:44.054Z,2.95
2022-11-17T11:50:35.374Z,3.30
2022-11-17T11:55:31.434Z,2.47
2022-11-17T11:58:53.549Z,3.65
2022-11-17T12:03:10.510Z,2.40
2022-11-17T13:09:31.474Z,1.13
2022-11-17T13:17:38.747Z,1.35
2022-11-17T14:22:31.950Z,2.50
2022-11-17T14:40:16.336Z,1.50
2022-11-17T14:43:39.075Z,2.13
2022-11-17T14:46:36.561Z,1.85
2022-11-17T14:50:06.188Z,1.98
2022-11-17T14:54:20.337Z,2.38
2022-11-17T14:57:47.695Z,1.70
2022-11-17T15:00:42.050Z,2.83
2022-11-17T15:03:54.218Z,2.85
2022-11-17T15:06:53.579Z,2.42
2022-11-17T15:10:03.274Z,2.10
2022-11-17T15:12:54.691Z,2.58
2022-11-17T15:15:50.887Z,1.27
2022-11-17T15:18:42.438Z,1.38
2022-11-17T15:21:42.589Z,1.20
2022-11-17T15:24:30.551Z,1.75
2022-11-17T15:27:20.827Z,1.55
2022-11-17T15:30:09.267Z,1.52
2022-11-17T15:33:01.183Z,3.10
2022-11-17T15:35:49.218Z,2.97
2022-11-17T15:38:38.743Z,2.40
2022-11-17T15:41:32.442Z,2.45
2022-11-17T15:47:14.839Z,3.25
2022-11-17T15:50:02.979Z,3.00
2022-11-17T15:53:04.173Z,2.80
2022-11-17T15:55:52.848Z,3.53
2022-11-17T15:58:42.503Z,3.63
2022-11-17T16:01:32.831Z,4.22
2022-11-17T16:04:21.712Z,3.17
2022-11-17T16:07:10.252Z,4.07
2022-11-17T16:09:58.288Z,3.97
2022-11-17T16:12:46.332Z,3.95
2022-11-17T16:15:42.727Z,3.50
2022-11-17T16:18:53.285Z,4.18
2022-11-17T16:21:41.502Z,3.67
2022-11-17T16:25:09.637Z,3.88
2022-11-17T16:27:57.664Z,4.32
2022-11-17T16:30:46.141Z,5.15
2022-11-17T16:33:40.521Z,4.47
2022-11-17T16:40:56.633Z,2.70
2022-11-17T16:43:55.374Z,3.38
2022-11-17T16:47:02.402Z,3.95
2022-11-17T16:51:04.682Z,2.72
2022-11-17T16:54:18.569Z,2.63
2022-11-17T16:57:55.711Z,2.67
2022-11-17T17:00:49.554Z,2.92
2022-11-17T17:03:45.227Z,2.90
2022-11-17T17:06:39.921Z,3.53
2022-11-17T17:09:28.845Z,3.22
2022-11-17T17:12:17.214Z,3.30
2022-11-17T17:15:06.521Z,3.00
2022-11-17T17:17:56.362Z,3.20
2022-11-17T17:20:56.567Z,2.78
2022-11-17T17:26:41.539Z,3.55
2022-11-17T17:29:38.567Z,2.40
2022-11-17T17:32:33.862Z,2.53
2022-11-17T17:35:26.446Z,2.45
2022-11-17T17:38:22.885Z,2.70
2022-11-17T17:41:12.993Z,2.95
2022-11-17T17:44:10.339Z,3.28
2022-11-17T17:47:04.075Z,3.78
2022-11-17T17:49:52.264Z,3.22
2022-11-17T17:52:40.528Z,3.20
2022-11-17T17:55:28.504Z,4.00
2022-11-17T18:01:37.441Z,3.42
2022-11-17T18:04:25.457Z,3.88
2022-11-17T18:07:13.573Z,4.05
2022-11-17T18:10:01.640Z,4.82
2022-11-17T18:12:49.693Z,5.40
2022-11-17T18:15:40.617Z,6.05
2022-11-17T18:18:29.226Z,5.35
2022-11-17T18:21:21.810Z,5.90
2022-11-17T18:24:14.840Z,7.00
2022-11-17T18:27:02.857Z,7.05
2022-11-17T18:29:50.932Z,6.30
2022-11-17T18:32:45.492Z,6.45
2022-11-17T18:35:38.651Z,5.82
2022-11-17T18:38:26.849Z,5.25
2022-11-17T18:41:17.715Z,5.55
2022-11-17T18:44:05.973Z,5.05
2022-11-17T18:46:58.224Z,5.22
2022-11-17T18:49:49.432Z,4.30
2022-11-17T18:52:37.625Z,4.38
2022-11-17T18:55:25.803Z,4.57
2022-11-17T18:58:13.672Z,4.28
2022-11-17T19:01:17.858Z,4.60
2022-11-17T19:04:06.509Z,5.03
2022-11-17T19:06:54.486Z,4.90
2022-11-17T19:09:44.117Z,5.03
2022-11-17T19:12:32.405Z,5.45
2022-11-17T19:15:21.092Z,5.50
2022-11-17T19:18:11.957Z,5.20
2022-11-17T19:21:12.708Z,6.00
2022-11-17T19:24:03.543Z,5.95
2022-11-17T19:26:51.838Z,5.20
2022-11-17T19:29:41.512Z,6.63
2022-11-17T19:32:29.661Z,35.00
2022-11-17T19:35:22.506Z,7.38
2022-11-17T19:38:10.876Z,7.20
2022-11-17T19:41:03.522Z,7.38
2022-11-17T19:43:56.522Z,7.65
2022-11-17T19:46:44.401Z,8.55
2022-11-17T19:49:32.356Z,10.18
2022-11-17T19:52:21.975Z,10.70
2022-11-17T19:55:09.951Z,11.93
2022-11-17T19:57:57.892Z,11.27
2022-11-17T20:00:48.545Z,13.20
2022-11-17T20:03:43.864Z,13.07
2022-11-17T20:06:40.308Z,14.07
2022-11-17T20:09:29.873Z,14.80
2022-11-17T20:12:20.840Z,13.82
2022-11-17T20:15:33.193Z,14.60
2022-11-17T20:18:22.893Z,13.10
2022-11-17T20:21:14.042Z,13.68
2022-11-17T20:24:04.658Z,14.70
2022-11-17T20:26:52.581Z,13.80
2022-11-17T20:29:40.703Z,13.25
2022-11-17T20:32:32.745Z,15.20
2022-11-17T20:35:20.567Z,14.50
2022-11-17T20:38:13.097Z,13.55
2022-11-17T20:41:05.041Z,15.68
2022-11-17T20:43:55.655Z,15.35
2022-11-17T20:46:43.481Z,16.73
2022-11-17T20:49:31.484Z,18.05
2022-11-17T20:52:21.153Z,16.77
2022-11-17T20:55:09.231Z,18.17
2022-11-17T20:57:57.298Z,15.90
2022-11-17T21:00:45.389Z,17.90
2022-11-17T21:03:34.325Z,17.95
2022-11-17T21:06:25.952Z,17.08
2022-11-17T21:09:36.382Z,16.83
2022-11-17T21:12:26.636Z,15.52
2022-11-17T21:15:14.938Z,16.13
2022-11-17T21:18:22.505Z,15.55
2022-11-17T21:21:15.597Z,15.52
2022-11-17T21:24:04.145Z,18.45
2022-11-17T21:26:54.643Z,14.23
2022-11-17T21:29:42.596Z,12.25
2022-11-17T21:32:37.096Z,10.02
2022-11-17T21:35:25.423Z,10.98
2022-11-17T21:38:14.118Z,10.82
2022-11-17T21:41:17.656Z,11.68
2022-11-17T21:44:07.278Z,11.40
2022-11-17T21:46:57.768Z,10.43
2022-11-17T21:49:49.321Z,9.55
2022-11-17T21:52:39.656Z,11.88
2022-11-17T21:55:31.029Z,10.35
2022-11-17T21:58:19.154Z,9.68
2022-11-17T22:01:14.123Z,11.32
2022-11-17T22:04:02.883Z,12.43
2022-11-17T22:06:53.376Z,13.40
2022-11-17T22:09:41.762Z,12.98
2022-11-17T22:12:30.162Z,12.25
2022-11-17T22:15:18.709Z,13.05
2022-11-17T22:18:06.999Z,13.38
2022-11-17T22:20:58.316Z,12.75
2022-11-17T22:23:46.344Z,13.10
2022-11-17T22:26:38.751Z,15.13
2022-11-17T22:29:26.673Z,14.75
2022-11-17T22:32:24.185Z,16.30
2022-11-17T22:35:12.212Z,16.38
2022-11-17T22:38:00.405Z,18.00
2022-11-17T22:40:48.556Z,20.20
2022-11-17T22:43:37.076Z,22.75
2022-11-17T22:46:29.053Z,22.67
2022-11-17T22:49:20.318Z,22.48
2022-11-17T22:52:10.031Z,22.17
2022-11-17T22:54:57.899Z,21.23
2022-11-17T22:57:46.084Z,21.60
2022-11-17T23:00:34.153Z,21.02
2022-11-17T23:03:22.389Z,20.25
2022-11-17T23:06:10.448Z,20.95
2022-11-17T23:08:59.160Z,20.48
2022-11-17T23:11:47.442Z,20.67
2022-11-17T23:14:35.529Z,20.33
2022-11-17T23:17:23.796Z,20.92
2022-11-17T23:20:12.662Z,23.50
2022-11-17T23:23:00.737Z,23.88
2022-11-17T23:25:48.968Z,23.10
2022-11-17T23:28:39.440Z,22.23
2022-11-17T23:31:30.345Z,18.45
2022-11-17T23:34:18.408Z,21.08
2022-11-17T23:37:06.750Z,22.05
2022-11-17T23:39:54.748Z,23.35
2022-11-17T23:42:43.352Z,21.20
2022-11-17T23:45:31.593Z,20.50
2022-11-17T23:48:19.566Z,23.70
2022-11-17T23:51:11.428Z,26.23
2022-11-17T23:54:01.304Z,22.25
2022-11-17T23:56:53.027Z,24.85
2022-11-17T23:59:41.217Z,17.38
